Time;durP1;ratioP1;P1;durP2;ratioP2;P2;SDS_P1;SDS_P2;PMS_P1;PMS_P2;Temp;Humidity;BMP_temperature;BMP_pressure;BME280_temperature;BME280_humidity;BME280_pressure;Samples;Min_cycle;Max_cycle;Signal;HPM_P1;HPM_P2
2021/10/30 00:00:55;;;;;;;30.58;10.65;;;;;;;4.75;100.00;98290.13;4976194;28;20105;-84
2021/10/30 00:03:20;;;;;;;48.25;18.45;;;;;;;4.63;100.00;98276.56;4992174;28;20077;-84
2021/10/30 00:05:46;;;;;;;34.85;12.32;;;;;;;4.63;100.00;98293.38;4975973;28;20030;-84
2021/10/30 00:08:12;;;;;;;25.52;11.02;;;;;;;4.58;100.00;98281.69;4991761;28;20420;-85
2021/10/30 00:10:38;;;;;;;38.90;16.63;;;;;;;4.49;100.00;98275.69;5008087;28;20030;-83
2021/10/30 00:13:04;;;;;;;43.47;21.00;;;;;;;4.47;100.00;98290.19;4991869;28;20129;-85
2021/10/30 00:15:30;;;;;;;81.35;25.98;;;;;;;4.36;100.00;98272.94;4991801;28;20041;-81
2021/10/30 00:17:57;;;;;;;52.20;22.73;;;;;;;4.31;100.00;98286.88;4993286;28;20022;-84
2021/10/30 00:20:23;;;;;;;44.13;19.08;;;;;;;4.29;100.00;98296.06;4991850;28;20038;-83
2021/10/30 00:22:48;;;;;;;31.77;13.43;;;;;;;4.12;100.00;98288.38;4991811;28;20380;-82
2021/10/30 00:25:14;;;;;;;28.08;12.02;;;;;;;4.21;100.00;98299.69;4991919;28;20058;-82
2021/10/30 00:27:41;;;;;;;26.05;11.73;;;;;;;4.18;100.00;98298.25;4975589;28;20035;-83
2021/10/30 00:30:07;;;;;;;25.35;9.35;;;;;;;4.13;100.00;98300.66;4975666;28;20449;-84
2021/10/30 00:32:33;;;;;;;25.92;10.45;;;;;;;4.17;100.00;98311.72;4975425;28;20104;-83
2021/10/30 00:34:58;;;;;;;28.98;12.32;;;;;;;4.16;100.00;98302.13;4991488;28;20524;-82
2021/10/30 00:37:24;;;;;;;38.88;10.18;;;;;;;4.10;100.00;98305.53;4991456;28;20076;-80
2021/10/30 00:39:50;;;;;;;27.60;9.65;;;;;;;4.06;100.00;98304.28;4992055;28;20057;-83
2021/10/30 00:42:15;;;;;;;29.70;9.25;;;;;;;3.94;100.00;98286.22;4975196;28;20061;-82
2021/10/30 00:44:41;;;;;;;38.20;9.70;;;;;;;3.95;100.00;98305.66;4992346;28;20050;-84
2021/10/30 00:47:06;;;;;;;72.18;10.18;;;;;;;3.90;100.00;98300.91;4975278;28;20377;-85
2021/10/30 00:49:33;;;;;;;45.25;8.73;;;;;;;3.82;100.00;98300.25;4991393;28;20332;-85
2021/10/30 00:51:59;;;;;;;45.95;8.68;;;;;;;3.84;100.00;98301.69;4975477;28;20041;-84
2021/10/30 00:54:26;;;;;;;54.83;9.40;;;;;;;3.87;100.00;98301.28;4991490;28;20033;-84
2021/10/30 00:56:54;;;;;;;38.75;9.30;;;;;;;3.87;100.00;98300.47;4975054;28;20200;-86
2021/10/30 00:59:21;;;;;;;35.35;10.25;;;;;;;3.84;100.00;98295.56;4990936;28;20053;-84
2021/10/30 01:01:49;;;;;;;28.80;9.55;;;;;;;3.82;100.00;98300.25;4975199;28;20030;-85
2021/10/30 01:04:15;;;;;;;29.33;9.30;;;;;;;3.79;100.00;98296.13;4991251;28;20034;-83
2021/10/30 01:06:43;;;;;;;17.48;7.65;;;;;;;3.80;100.00;98296.94;5007295;28;20026;-84
2021/10/30 01:09:09;;;;;;;29.50;7.07;;;;;;;3.80;100.00;98303.06;4975009;28;20077;-86
2021/10/30 01:11:35;;;;;;;16.25;6.32;;;;;;;3.75;100.00;98303.66;4992068;28;20057;-83
2021/10/30 01:14:02;;;;;;;38.40;6.88;;;;;;;3.73;100.00;98299.53;4991981;28;20449;-84
2021/10/30 01:16:28;;;;;;;13.57;5.97;;;;;;;3.63;100.00;98297.22;4990954;28;20389;-83
2021/10/30 01:18:54;;;;;;;23.83;7.05;;;;;;;3.65;100.00;98297.00;4991135;28;20038;-85
2021/10/30 01:21:28;;;;;;;28.05;7.72;;;;;;;3.65;100.00;98299.66;4991075;28;20461;-84
2021/10/30 01:23:54;;;;;;;38.75;8.10;;;;;;;3.68;100.00;98305.44;4991991;28;20118;-85
2021/10/30 01:26:21;;;;;;;40.85;10.18;;;;;;;3.73;100.00;98292.41;4974342;28;20117;-81
2021/10/30 01:28:48;;;;;;;46.10;12.35;;;;;;;3.67;100.00;98298.47;4958774;28;20058;-85
2021/10/30 01:31:13;;;;;;;49.78;9.38;;;;;;;3.61;100.00;98301.91;4974801;28;20089;-84
2021/10/30 01:33:45;;;;;;;36.10;7.45;;;;;;;3.54;100.00;98293.03;4990727;28;20030;-85
2021/10/30 01:36:12;;;;;;;19.92;6.13;;;;;;;3.48;100.00;98294.63;4991019;28;20041;-84
2021/10/30 01:38:38;;;;;;;33.60;7.22;;;;;;;3.43;100.00;98289.06;5006846;28;20282;-85
2021/10/30 01:41:04;;;;;;;23.23;8.10;;;;;;;3.36;100.00;98287.34;4974555;28;20041;-85
2021/10/30 01:43:30;;;;;;;44.63;9.55;;;;;;;3.37;100.00;98291.69;4990533;28;20026;-84
2021/10/30 01:45:56;;;;;;;33.50;8.50;;;;;;;3.31;100.00;98298.56;5007092;28;20514;-83
2021/10/30 01:48:38;;;;;;;45.40;7.13;;;;;;;3.14;100.00;98282.03;4990390;28;20034;-84
2021/10/30 01:51:05;;;;;;;23.40;5.47;;;;;;;3.21;100.00;98298.88;5007922;28;20022;-82
2021/10/30 01:53:32;;;;;;;34.13;6.57;;;;;;;3.19;100.00;98294.75;4994135;28;20367;-83
2021/10/30 01:55:58;;;;;;;24.55;5.85;;;;;;;3.15;100.00;98296.13;4994684;28;20048;-85
2021/10/30 01:58:23;;;;;;;13.75;6.22;;;;;;;3.18;100.00;98293.13;4994593;28;20049;-85
2021/10/30 02:00:51;;;;;;;19.85;6.70;;;;;;;3.19;100.00;98306.19;5010600;28;20081;-83
2021/10/30 02:03:17;;;;;;;19.02;6.20;;;;;;;3.16;100.00;98301.28;4994449;28;20026;-83
2021/10/30 02:05:43;;;;;;;16.25;5.70;;;;;;;3.20;100.00;98304.34;4994279;28;20038;-84
2021/10/30 02:08:09;;;;;;;17.95;5.85;;;;;;;3.20;100.00;98304.34;4994219;28;20400;-83
2021/10/30 02:10:35;;;;;;;18.17;4.85;;;;;;;3.19;100.00;98300.88;4994348;28;20042;-85
2021/10/30 02:13:00;;;;;;;17.08;5.22;;;;;;;3.13;100.00;98298.19;5010560;28;20037;-84
2021/10/30 02:15:26;;;;;;;19.42;5.70;;;;;;;3.15;100.00;98301.44;4993940;28;20388;-85
2021/10/30 02:17:52;;;;;;;18.63;5.50;;;;;;;3.17;100.00;98304.75;4977915;28;20122;-82
2021/10/30 02:20:19;;;;;;;36.20;6.90;;;;;;;3.20;100.00;98293.75;4995021;28;20023;-85
2021/10/30 02:22:46;;;;;;;29.73;5.50;;;;;;;3.27;100.00;98290.13;4978101;28;20045;-84
2021/10/30 02:25:12;;;;;;;24.85;6.13;;;;;;;3.27;100.00;98298.09;4994386;28;20026;-83
2021/10/30 02:27:37;;;;;;;44.55;10.02;;;;;;;3.13;100.00;98288.38;5010372;28;20080;-83
2021/10/30 02:30:04;;;;;;;56.67;12.00;;;;;;;3.18;100.00;98303.75;4977546;28;20046;-83
2021/10/30 02:32:30;;;;;;;36.47;8.52;;;;;;;3.06;100.00;98296.25;4977629;28;20073;-84
2021/10/30 02:34:56;;;;;;;38.40;6.90;;;;;;;3.04;100.00;98300.13;4995030;28;20452;-83
2021/10/30 02:37:21;;;;;;;27.48;5.53;;;;;;;2.97;100.00;98289.44;4961475;28;20045;-83
2021/10/30 02:39:47;;;;;;;19.38;5.90;;;;;;;3.05;100.00;98309.75;4993366;28;20030;-84
2021/10/30 02:42:13;;;;;;;15.80;5.75;;;;;;;2.99;100.00;98297.19;5010108;28;20033;-84
2021/10/30 02:44:39;;;;;;;12.50;5.30;;;;;;;2.97;100.00;98297.41;4993649;28;20033;-85
2021/10/30 02:47:04;;;;;;;16.27;5.60;;;;;;;2.97;100.00;98293.94;4994642;28;20105;-85
2021/10/30 02:49:31;;;;;;;11.43;4.72;;;;;;;2.95;100.00;98286.13;4994879;28;20025;-83
2021/10/30 02:51:57;;;;;;;11.57;4.38;;;;;;;3.15;100.00;98290.81;4977102;28;20161;-83
2021/10/30 02:54:22;;;;;;;12.18;4.70;;;;;;;3.25;100.00;98283.38;4993765;28;20132;-85
2021/10/30 02:56:48;;;;;;;11.25;4.68;;;;;;;3.27;100.00;98278.69;4993115;28;20022;-83
2021/10/30 02:59:14;;;;;;;16.05;4.82;;;;;;;3.30;100.00;98281.78;4994388;28;20022;-84
2021/10/30 03:01:40;;;;;;;16.52;4.88;;;;;;;3.30;100.00;98289.75;5009309;28;20515;-82
2021/10/30 03:04:05;;;;;;;9.80;4.45;;;;;;;3.30;100.00;98281.78;5008960;28;20038;-83
2021/10/30 03:06:31;;;;;;;9.45;4.35;;;;;;;3.30;100.00;98286.28;4994049;28;20089;-86
2021/10/30 03:08:58;;;;;;;13.23;4.75;;;;;;;3.34;100.00;98297.38;4993111;28;20034;-83
2021/10/30 03:11:24;;;;;;;15.52;5.05;;;;;;;3.33;100.00;98296.53;5009298;28;20038;-85
2021/10/30 03:13:50;;;;;;;12.40;5.57;;;;;;;3.25;100.00;98288.69;4993184;28;20033;-85
2021/10/30 03:16:16;;;;;;;21.27;5.75;;;;;;;3.27;100.00;98292.78;4993146;28;20037;-85
2021/10/30 03:18:41;;;;;;;20.08;5.70;;;;;;;3.29;100.00;98290.78;5009365;28;20368;-85
2021/10/30 03:21:07;;;;;;;25.17;8.25;;;;;;;3.33;100.00;98285.91;4992864;28;20061;-86
2021/10/30 03:23:33;;;;;;;36.78;10.10;;;;;;;3.30;100.00;98287.09;4994212;28;20022;-85
2021/10/30 03:25:59;;;;;;;31.95;10.65;;;;;;;3.37;100.00;98283.72;4993837;28;20018;-83
2021/10/30 03:28:24;;;;;;;33.70;10.25;;;;;;;3.48;100.00;98284.00;4992667;28;20030;-83
2021/10/30 03:30:50;;;;;;;32.70;10.32;;;;;;;3.58;100.00;98285.53;5009256;28;20038;-85
2021/10/30 03:33:16;;;;;;;20.33;6.72;;;;;;;3.61;100.00;98280.66;4992577;28;20065;-83
2021/10/30 03:35:41;;;;;;;13.65;4.78;;;;;;;3.68;100.00;98283.38;4992483;28;20039;-85
2021/10/30 03:38:07;;;;;;;16.10;5.40;;;;;;;3.62;100.00;98276.97;4992462;28;20049;-83
2021/10/30 03:40:33;;;;;;;16.48;4.72;;;;;;;3.53;100.00;98281.59;4992502;28;20077;-83
2021/10/30 03:42:58;;;;;;;13.88;4.22;;;;;;;3.44;100.00;98295.19;4992624;28;20038;-81
2021/10/30 03:45:24;;;;;;;10.55;4.07;;;;;;;3.30;100.00;98284.44;4992430;28;20691;-84
2021/10/30 03:47:50;;;;;;;12.02;4.35;;;;;;;3.28;100.00;98288.31;4992395;28;20027;-84
2021/10/30 03:50:16;;;;;;;8.90;3.90;;;;;;;3.29;100.00;98292.63;4993404;28;20477;-85
2021/10/30 03:52:41;;;;;;;13.05;4.45;;;;;;;3.28;100.00;98293.63;5008276;28;20109;-84
2021/10/30 03:55:07;;;;;;;11.55;3.75;;;;;;;3.25;100.00;98286.03;4992644;28;20038;-84
2021/10/30 03:57:33;;;;;;;6.93;3.05;;;;;;;3.17;100.00;98291.47;4992461;28;20088;-86
2021/10/30 03:59:59;;;;;;;8.07;3.70;;;;;;;3.12;100.00;98305.31;4992305;28;20042;-84
2021/10/30 04:02:25;;;;;;;8.15;2.70;;;;;;;2.99;100.00;98284.78;4993249;28;20081;-84
2021/10/30 04:04:51;;;;;;;8.30;3.28;;;;;;;3.03;100.00;98296.63;5008174;28;20335;-85
2021/10/30 04:07:17;;;;;;;8.73;2.95;;;;;;;3.02;100.00;98295.00;4993243;28;20030;-84
2021/10/30 04:09:42;;;;;;;5.28;2.88;;;;;;;3.07;100.00;98303.22;4992262;28;20092;-82
2021/10/30 04:12:09;;;;;;;8.35;2.45;;;;;;;3.14;100.00;98307.78;4991719;28;20018;-82
2021/10/30 04:14:34;;;;;;;8.10;2.95;;;;;;;3.18;100.00;98311.72;5008084;28;20105;-85
2021/10/30 04:17:00;;;;;;;8.73;2.55;;;;;;;3.19;100.00;98310.69;4975904;28;20124;-84
2021/10/30 04:19:26;;;;;;;11.32;3.38;;;;;;;3.19;100.00;98310.69;4991650;28;20100;-86
2021/10/30 04:21:51;;;;;;;6.80;2.58;;;;;;;3.31;100.00;98311.84;4991777;28;20025;-81
2021/10/30 04:24:17;;;;;;;7.95;3.03;;;;;;;3.38;100.00;98320.69;5008316;28;20037;-82
2021/10/30 04:26:42;;;;;;;8.80;3.70;;;;;;;3.45;100.00;98326.91;4991762;28;20026;-81
2021/10/30 04:29:08;;;;;;;6.95;3.03;;;;;;;3.56;100.00;98319.44;4959655;28;20030;-82
2021/10/30 04:31:35;;;;;;;6.35;3.08;;;;;;;3.66;100.00;98322.59;4959502;28;20038;-83
2021/10/30 04:34:03;;;;;;;6.32;2.95;;;;;;;3.67;100.00;98314.41;4974961;28;20018;-80
2021/10/30 04:36:31;;;;;;;9.48;4.22;;;;;;;3.73;100.00;98318.13;4975763;28;20460;-82
2021/10/30 04:39:00;;;;;;;13.48;4.90;;;;;;;3.78;100.00;98317.56;5007545;28;20045;-82
2021/10/30 04:41:26;;;;;;;13.70;3.30;;;;;;;3.88;100.00;98331.34;4992734;28;20026;-82
2021/10/30 04:43:52;;;;;;;11.05;3.78;;;;;;;3.90;100.00;98332.00;5007610;28;20487;-81
2021/10/30 04:46:20;;;;;;;7.93;3.10;;;;;;;3.94;100.00;98318.13;4991468;28;20022;-83
2021/10/30 04:48:46;;;;;;;8.57;4.00;;;;;;;3.95;100.00;98321.59;5007671;28;20475;-84
2021/10/30 04:51:12;;;;;;;9.75;3.30;;;;;;;3.87;100.00;98311.94;4992625;28;20027;-85
2021/10/30 04:53:40;;;;;;;10.18;3.47;;;;;;;3.84;100.00;98317.63;4991162;28;20049;-82
2021/10/30 04:56:06;;;;;;;7.45;3.20;;;;;;;3.81;100.00;98333.13;4975415;28;20085;-84
2021/10/30 04:58:33;;;;;;;7.47;3.50;;;;;;;3.76;100.00;98336.38;4991228;28;20034;-83
2021/10/30 05:01:00;;;;;;;6.47;2.97;;;;;;;3.66;100.00;98343.84;5007152;28;20026;-81
2021/10/30 05:03:26;;;;;;;14.13;3.22;;;;;;;3.56;100.00;98343.34;4991298;28;20042;-81
2021/10/30 05:05:51;;;;;;;7.53;2.63;;;;;;;3.49;100.00;98338.81;4992321;28;20024;-85
2021/10/30 05:08:17;;;;;;;8.45;2.67;;;;;;;3.33;100.00;98330.25;4990819;28;20345;-83
2021/10/30 05:10:43;;;;;;;13.60;3.15;;;;;;;3.36;100.00;98343.13;4975092;28;20100;-83
2021/10/30 05:13:09;;;;;;;6.28;2.60;;;;;;;3.32;100.00;98340.03;4991969;28;20456;-85
2021/10/30 05:15:34;;;;;;;5.60;2.60;;;;;;;3.36;100.00;98345.78;4991091;28;20041;-85
2021/10/30 05:18:00;;;;;;;5.05;2.42;;;;;;;3.31;100.00;98346.38;4991074;28;20053;-82
2021/10/30 05:20:26;;;;;;;7.65;2.83;;;;;;;3.24;100.00;98350.78;4991105;28;20468;-82
2021/10/30 05:22:52;;;;;;;4.22;2.22;;;;;;;3.17;100.00;98356.00;5007342;28;20331;-83
2021/10/30 05:25:18;;;;;;;8.80;2.63;;;;;;;3.09;100.00;98354.28;4990944;28;20105;-85
2021/10/30 05:27:43;;;;;;;5.63;2.45;;;;;;;3.12;100.00;98366.38;4990774;28;20487;-83
2021/10/30 05:30:09;;;;;;;5.75;2.47;;;;;;;3.04;100.00;98361.16;4990847;28;20037;-83
2021/10/30 05:32:35;;;;;;;5.55;2.35;;;;;;;2.99;100.00;98372.38;4990697;28;20038;-82
2021/10/30 05:35:01;;;;;;;7.97;3.05;;;;;;;2.96;100.00;98385.16;5007207;28;20042;-83
2021/10/30 05:37:27;;;;;;;5.80;2.50;;;;;;;2.98;100.00;98386.63;4991182;28;20026;-84
2021/10/30 05:39:52;;;;;;;5.13;2.40;;;;;;;3.06;100.00;98375.91;4990792;28;20030;-83
2021/10/30 05:42:18;;;;;;;4.50;2.10;;;;;;;3.19;100.00;98380.56;4974768;28;20034;-85
2021/10/30 05:44:44;;;;;;;7.32;2.88;;;;;;;3.29;100.00;98388.22;4990371;28;20030;-82
2021/10/30 05:47:10;;;;;;;4.70;2.20;;;;;;;3.28;100.00;98378.59;4990833;28;20030;-83
2021/10/30 05:49:38;;;;;;;6.90;2.40;;;;;;;3.25;100.00;98392.25;4958488;28;20150;-83
2021/10/30 05:52:04;;;;;;;5.10;2.55;;;;;;;3.17;100.00;98389.72;4991734;28;20045;-86
2021/10/30 05:54:30;;;;;;;5.72;2.78;;;;;;;3.07;100.00;98392.69;4990560;28;20061;-83
2021/10/30 05:56:55;;;;;;;7.22;2.20;;;;;;;2.93;100.00;98391.66;4990794;28;20030;-82
2021/10/30 05:59:21;;;;;;;6.28;2.50;;;;;;;2.75;100.00;98384.13;4991374;28;20022;-84
2021/10/30 06:01:47;;;;;;;4.97;2.75;;;;;;;2.66;100.00;98371.13;4990708;28;20033;-84
2021/10/30 06:04:12;;;;;;;6.70;2.67;;;;;;;2.67;100.00;98396.63;4990369;28;20070;-83
2021/10/30 06:06:38;;;;;;;7.47;2.50;;;;;;;2.60;100.00;98393.91;4991948;28;20027;-83
2021/10/30 06:09:04;;;;;;;5.85;2.45;;;;;;;2.50;100.00;98386.19;4991576;28;20037;-84
2021/10/30 06:11:29;;;;;;;5.57;2.30;;;;;;;2.56;100.00;98398.72;4991674;28;20345;-83
2021/10/30 06:13:55;;;;;;;6.47;2.17;;;;;;;2.55;100.00;98399.75;4990289;28;20036;-83
2021/10/30 06:16:21;;;;;;;8.93;2.20;;;;;;;2.62;100.00;98416.59;4990465;28;20030;-82
2021/10/30 06:18:46;;;;;;;5.65;2.08;;;;;;;2.65;100.00;98415.41;4990556;28;20034;-83
2021/10/30 06:21:12;;;;;;;5.30;2.40;;;;;;;2.62;100.00;98411.28;4990417;28;20064;-83
2021/10/30 06:23:38;;;;;;;7.32;2.50;;;;;;;2.74;100.00;98424.91;4990590;28;20541;-85
2021/10/30 06:26:04;;;;;;;5.53;1.90;;;;;;;2.81;100.00;98448.91;5006352;28;20104;-83
2021/10/30 06:28:29;;;;;;;3.95;2.00;;;;;;;2.86;100.00;98454.47;5006720;28;20473;-83
2021/10/30 06:30:55;;;;;;;6.35;1.95;;;;;;;2.95;100.00;98456.03;4990236;28;20026;-85
2021/10/30 06:33:21;;;;;;;8.73;2.47;;;;;;;3.07;100.00;98446.59;4973927;28;20077;-85
2021/10/30 06:35:46;;;;;;;3.78;2.30;;;;;;;3.15;100.00;98443.03;4991269;28;20110;-80
2021/10/30 06:38:12;;;;;;;7.75;1.95;;;;;;;3.24;100.00;98441.09;4975443;28;20038;-83
2021/10/30 06:40:39;;;;;;;4.93;1.85;;;;;;;3.32;100.00;98435.66;5009842;28;20022;-83
2021/10/30 06:43:05;;;;;;;5.25;2.15;;;;;;;3.44;100.00;98441.31;5009787;28;20049;-83
2021/10/30 06:45:31;;;;;;;4.78;2.25;;;;;;;3.54;100.00;98436.50;4961565;28;20113;-82
2021/10/30 06:47:56;;;;;;;6.10;2.55;;;;;;;3.65;100.00;98428.06;4993833;28;20117;-83
2021/10/30 06:50:22;;;;;;;5.93;2.13;;;;;;;3.81;100.00;98437.66;5009829;28;20113;-83
2021/10/30 06:52:51;;;;;;;6.43;1.88;;;;;;;3.92;100.00;98441.63;4994831;28;20490;-85
2021/10/30 06:55:17;;;;;;;5.63;1.83;;;;;;;4.00;100.00;98433.53;4994898;28;20033;-86
2021/10/30 06:57:43;;;;;;;5.90;2.00;;;;;;;4.07;100.00;98438.88;4993607;28;20034;-83
2021/10/30 07:00:10;;;;;;;5.57;2.00;;;;;;;4.13;100.00;98451.44;4994626;28;20026;-84
2021/10/30 07:02:36;;;;;;;4.78;2.08;;;;;;;4.10;100.00;98457.13;4993327;28;20460;-81
2021/10/30 07:05:02;;;;;;;8.10;2.88;;;;;;;4.04;100.00;98452.56;4993594;28;20034;-85
2021/10/30 07:07:28;;;;;;;10.55;2.58;;;;;;;4.09;100.00;98466.13;4993431;28;20031;-85
2021/10/30 07:09:59;;;;;;;4.47;2.15;;;;;;;4.14;100.00;98466.38;4994749;28;20049;-85
2021/10/30 07:12:29;;;;;;;13.38;4.82;;;;;;;4.12;100.00;98461.22;4993618;28;20431;-83
2021/10/30 07:14:55;;;;;;;14.82;5.70;;;;;;;4.16;100.00;98469.66;5009539;28;20030;-84
2021/10/30 07:17:20;;;;;;;15.00;4.80;;;;;;;4.07;100.00;98453.00;4993148;28;20038;-83
2021/10/30 07:19:46;;;;;;;8.60;3.20;;;;;;;4.12;100.00;98460.41;4977182;28;20372;-83
2021/10/30 07:22:12;;;;;;;4.78;2.50;;;;;;;4.00;100.00;98472.59;4976967;28;20083;-84
2021/10/30 07:24:37;;;;;;;12.93;4.05;;;;;;;3.96;100.00;98474.78;4994206;28;20080;-83
2021/10/30 07:27:03;;;;;;;10.77;4.43;;;;;;;3.93;100.00;98473.31;4976592;28;20376;-82
2021/10/30 07:29:29;;;;;;;14.32;4.90;;;;;;;3.95;100.00;98486.44;4994287;28;20030;-82
2021/10/30 07:31:54;;;;;;;10.70;3.92;;;;;;;3.82;100.00;98481.81;4992786;28;20030;-83
2021/10/30 07:34:20;;;;;;;12.10;4.25;;;;;;;3.63;100.00;98477.09;4992767;28;20047;-86
2021/10/30 07:36:46;;;;;;;10.15;5.10;;;;;;;3.57;100.00;98488.47;4992497;28;20041;-85
2021/10/30 07:39:11;;;;;;;11.60;4.45;;;;;;;3.48;100.00;98477.13;4992717;28;20408;-84
2021/10/30 07:41:37;;;;;;;10.85;4.30;;;;;;;3.48;100.00;98479.78;4993667;28;20034;-82
2021/10/30 07:44:03;;;;;;;8.70;3.63;;;;;;;3.45;100.00;98486.28;4992812;28;20262;-84
2021/10/30 07:46:32;;;;;;;8.57;3.70;;;;;;;3.47;100.00;98491.44;4992751;28;20487;-85
2021/10/30 07:48:57;;;;;;;6.22;3.22;;;;;;;3.48;100.00;98496.53;4992317;28;20449;-83
2021/10/30 07:51:23;;;;;;;7.60;3.25;;;;;;;3.49;100.00;98484.06;4992383;28;20041;-84
2021/10/30 07:53:49;;;;;;;8.18;2.95;;;;;;;3.57;100.00;98494.59;4992212;28;20361;-86
2021/10/30 07:56:15;;;;;;;8.68;2.95;;;;;;;3.64;100.00;98490.19;4993070;28;20042;-83
2021/10/30 07:58:42;;;;;;;8.30;3.17;;;;;;;3.85;100.00;98500.03;5008646;28;20028;-84
2021/10/30 08:01:08;;;;;;;7.80;2.90;;;;;;;4.08;100.00;98512.34;4993378;28;20496;-85
2021/10/30 08:03:33;;;;;;;11.40;3.15;;;;;;;4.39;100.00;98504.03;4991939;28;20026;-86
2021/10/30 08:05:59;;;;;;;9.55;2.88;;;;;;;4.77;100.00;98509.06;4992313;28;20101;-84
2021/10/30 08:08:24;;;;;;;12.35;3.00;;;;;;;5.13;100.00;98506.22;4991934;28;20364;-86
2021/10/30 08:10:50;;;;;;;11.52;3.53;;;;;;;5.46;100.00;98517.06;5008427;28;20026;-83
2021/10/30 08:13:16;;;;;;;12.70;3.47;;;;;;;5.62;100.00;98509.75;5008340;28;20460;-83
2021/10/30 08:15:42;;;;;;;17.40;9.73;;;;;;;5.68;100.00;98516.94;4959978;28;20034;-85
2021/10/30 08:18:08;;;;;;;15.30;5.97;;;;;;;5.68;100.00;98514.28;4993001;28;20384;-81
2021/10/30 08:20:34;;;;;;;11.45;6.45;;;;;;;5.67;100.00;98521.47;4991885;28;20030;-84
2021/10/30 08:23:00;;;;;;;9.05;4.03;;;;;;;5.58;100.00;98513.81;4975673;28;20053;-83
2021/10/30 08:25:25;;;;;;;9.38;4.72;;;;;;;5.46;100.00;98518.91;4991584;28;20444;-87
2021/10/30 08:27:52;;;;;;;12.35;6.90;;;;;;;5.31;100.00;98523.53;4975525;28;20056;-86
2021/10/30 08:30:17;;;;;;;9.32;4.43;;;;;;;5.19;100.00;98520.63;4991727;28;20485;-83
2021/10/30 08:32:44;;;;;;;8.27;2.65;;;;;;;5.19;100.00;98532.09;4991626;28;20093;-84
2021/10/30 08:35:10;;;;;;;7.28;2.47;;;;;;;5.15;100.00;98530.81;5007821;28;20023;-85
2021/10/30 08:37:38;;;;;;;5.13;3.10;;;;;;;5.12;100.00;98530.41;4991270;28;20424;-84
2021/10/30 08:40:06;;;;;;;6.35;3.17;;;;;;;5.09;100.00;98536.13;5007559;28;20026;-83
2021/10/30 08:42:33;;;;;;;10.85;3.03;;;;;;;5.06;100.00;98538.16;4992863;28;20042;-85
2021/10/30 08:44:59;;;;;;;5.53;2.28;;;;;;;5.09;100.00;98541.44;4991817;28;20468;-84
2021/10/30 08:47:25;;;;;;;3.97;1.92;;;;;;;5.20;100.00;98549.72;4975245;28;20097;-85
2021/10/30 08:49:54;;;;;;;5.20;1.50;;;;;;;5.33;100.00;98543.63;4992538;28;20026;-84
2021/10/30 08:52:19;;;;;;;6.80;2.45;;;;;;;5.45;100.00;98558.06;4974786;28;20052;-83
2021/10/30 08:54:45;;;;;;;3.05;1.50;;;;;;;5.51;100.00;98549.28;4991221;28;20129;-84
2021/10/30 08:57:11;;;;;;;4.45;1.42;;;;;;;5.67;100.00;98560.63;4991185;28;20366;-84
2021/10/30 08:59:45;;;;;;;1.85;1.08;;;;;;;5.82;100.00;98558.66;4990953;28;20030;-84
2021/10/30 09:02:34;;;;;;;7.05;1.50;;;;;;;5.89;100.00;98550.66;5006758;28;20026;-85
2021/10/30 09:05:30;;;;;;;6.22;1.70;;;;;;;6.05;100.00;98552.19;4975808;28;20595;-85
2021/10/30 09:07:57;;;;;;;3.65;1.35;;;;;;;6.06;100.00;98553.81;4988748;28;20034;-85
2021/10/30 09:10:34;;;;;;;4.10;1.45;;;;;;;6.08;100.00;98554.44;4991380;28;20038;-85
2021/10/30 09:13:03;;;;;;;7.35;2.08;;;;;;;6.27;100.00;98558.19;4991359;28;20022;-84
2021/10/30 09:15:47;;;;;;;4.35;1.80;;;;;;;6.44;100.00;98556.78;4991474;28;20030;-84
2021/10/30 09:18:28;;;;;;;8.68;1.58;;;;;;;6.69;100.00;98559.69;5007541;28;20040;-84
2021/10/30 09:20:56;;;;;;;4.30;1.80;;;;;;;6.92;100.00;98567.28;4992372;28;20109;-87
2021/10/30 09:23:25;;;;;;;9.57;2.80;;;;;;;7.20;100.00;98558.25;5007337;28;20084;-86
2021/10/30 09:26:05;;;;;;;6.90;1.48;;;;;;;7.57;100.00;98570.09;5007197;28;20018;-85
2021/10/30 09:28:33;;;;;;;7.10;2.25;;;;;;;7.85;100.00;98567.09;4990725;28;20464;-86
2021/10/30 09:31:08;;;;;;;5.00;1.77;;;;;;;8.18;100.00;98563.47;5007390;28;20534;-83
2021/10/30 09:33:47;;;;;;;6.25;2.30;;;;;;;8.41;100.00;98567.47;4974538;28;20522;-84
2021/10/30 09:36:14;;;;;;;10.50;2.30;;;;;;;8.47;100.00;98566.63;4974959;28;20043;-84
2021/10/30 09:38:44;;;;;;;8.15;2.50;;;;;;;8.58;100.00;98568.63;5007250;28;20026;-83
2021/10/30 09:41:36;;;;;;;6.78;2.17;;;;;;;8.71;100.00;98549.78;4974937;28;20105;-82
2021/10/30 09:44:11;;;;;;;11.63;2.35;;;;;;;8.83;100.00;98563.25;4990948;28;20042;-84
2021/10/30 09:46:46;;;;;;;7.45;2.58;;;;;;;8.78;100.00;98569.28;4974381;28;20034;-84
2021/10/30 09:49:17;;;;;;;4.90;1.60;;;;;;;8.61;100.00;98568.19;4990808;28;20034;-84
2021/10/30 09:51:47;;;;;;;4.78;1.35;;;;;;;8.50;100.00;98576.91;4990852;28;20041;-83
2021/10/30 09:54:32;;;;;;;3.35;1.50;;;;;;;8.32;100.00;98574.94;4990326;28;20401;-84
2021/10/30 09:56:58;;;;;;;3.42;1.20;;;;;;;8.13;100.00;98582.84;5006740;28;20022;-85
2021/10/30 09:59:25;;;;;;;5.15;1.20;;;;;;;7.97;100.00;98588.69;4990198;28;20037;-85
2021/10/30 10:01:51;;;;;;;6.78;1.70;;;;;;;7.90;100.00;98590.56;4990678;28;20038;-85
2021/10/30 10:04:19;;;;;;;7.65;2.05;;;;;;;7.93;100.00;98590.94;4991564;28;20030;-85
2021/10/30 10:06:54;;;;;;;3.67;1.17;;;;;;;8.17;100.00;98588.59;4990588;28;20041;-83
2021/10/30 10:09:20;;;;;;;4.20;1.45;;;;;;;8.41;100.00;98586.22;5006644;28;20030;-84
2021/10/30 10:11:48;;;;;;;2.25;0.70;;;;;;;8.53;100.00;98579.16;4975101;28;20037;-85
2021/10/30 10:14:21;;;;;;;5.28;1.30;;;;;;;8.67;100.00;98593.28;5010473;28;20150;-85
2021/10/30 10:16:48;;;;;;;10.13;1.27;;;;;;;8.78;100.00;98593.38;4978216;28;20054;-83
2021/10/30 10:19:15;;;;;;;1.23;0.60;;;;;;;8.98;100.00;98595.13;5010240;28;20026;-85
2021/10/30 10:21:41;;;;;;;1.58;0.90;;;;;;;9.01;99.67;98598.16;4977783;28;20028;-85
2021/10/30 10:24:18;;;;;;;1.83;0.93;;;;;;;8.91;100.00;98605.06;5010244;28;20101;-85
2021/10/30 10:26:52;;;;;;;3.05;0.90;;;;;;;8.77;100.00;98594.44;5010169;28;20022;-85
2021/10/30 10:29:27;;;;;;;13.90;1.25;;;;;;;8.79;99.65;98594.22;4994233;28;20041;-85
2021/10/30 10:31:53;;;;;;;3.08;0.75;;;;;;;8.83;99.31;98595.44;4995232;28;20487;-85
2021/10/30 10:34:34;;;;;;;2.03;0.57;;;;;;;8.94;98.65;98604.63;5009864;28;20026;-86
2021/10/30 10:37:13;;;;;;;2.15;0.90;;;;;;;9.03;98.08;98601.47;4994153;28;20034;-85
2021/10/30 10:39:39;;;;;;;2.90;0.60;;;;;;;9.17;97.75;98607.53;4993786;28;20476;-83
2021/10/30 10:42:06;;;;;;;3.03;0.73;;;;;;;9.33;96.81;98599.97;5010091;28;20034;-86
2021/10/30 10:44:35;;;;;;;0.40;0.40;;;;;;;9.68;94.94;98606.44;4961468;28;20030;-86
2021/10/30 10:47:02;;;;;;;1.17;0.60;;;;;;;10.11;93.63;98604.72;4994000;28;20457;-81
2021/10/30 10:49:34;;;;;;;4.22;0.98;;;;;;;10.58;92.92;98604.94;4993901;28;20162;-83
2021/10/30 10:52:06;;;;;;;1.65;0.57;;;;;;;11.04;89.20;98616.88;4994837;28;20026;-83
2021/10/30 10:55:04;;;;;;;5.72;0.70;;;;;;;11.51;86.37;98618.75;5010150;28;20085;-83
2021/10/30 10:57:46;;;;;;;3.08;0.57;;;;;;;11.70;86.88;98620.28;4989786;28;20034;-85
2021/10/30 11:00:13;;;;;;;2.60;1.00;;;;;;;12.23;85.62;98627.38;5009784;28;20090;-84
2021/10/30 11:02:52;;;;;;;3.17;1.08;;;;;;;12.86;82.69;98628.28;4994525;28;20057;-86
2021/10/30 11:05:20;;;;;;;1.52;1.10;;;;;;;13.56;81.37;98634.31;4977114;28;20026;-83
2021/10/30 11:07:49;;;;;;;3.20;2.08;;;;;;;14.24;79.35;98637.69;4977054;28;20058;-88
2021/10/30 11:10:31;;;;;;;3.15;1.38;;;;;;;14.13;79.31;98641.28;4994198;28;20568;-84
2021/10/30 11:13:00;;;;;;;3.53;0.80;;;;;;;14.34;77.06;98639.66;4993216;28;20468;-83
2021/10/30 11:15:29;;;;;;;3.95;1.10;;;;;;;14.89;75.30;98641.38;4993092;28;20122;-84
2021/10/30 11:18:07;;;;;;;1.00;0.65;;;;;;;14.38;74.38;98644.31;4993080;28;20061;-84
2021/10/30 11:20:42;;;;;;;5.65;1.33;;;;;;;14.41;74.23;98651.94;4993197;28;20194;-83
2021/10/30 11:23:30;;;;;;;1.40;0.80;;;;;;;13.00;78.08;98636.88;4993050;28;20468;-84
2021/10/30 11:26:06;;;;;;;3.78;1.20;;;;;;;11.99;79.42;98641.97;4992987;28;20030;-86
2021/10/30 11:28:33;;;;;;;3.00;0.80;;;;;;;12.01;81.41;98651.44;4993163;28;20453;-84
2021/10/30 11:30:59;;;;;;;2.67;0.80;;;;;;;12.31;81.16;98653.94;5008921;28;20030;-84